Time;durP1;ratioP1;P1;durP2;ratioP2;P2;SDS_P1;SDS_P2;PMS_P1;PMS_P2;Temp;Humidity;BMP_temperature;BMP_pressure;BME280_temperature;BME280_humidity;BME280_pressure;Samples;Min_cycle;Max_cycle;Signal;HPM_P1;HPM_P2
2024/04/01 00:01:02;;;;;;;2.55;0.98;;;;;;;;;;5097377;28;20397;-80
2024/04/01 00:03:28;;;;;;;2.17;0.80;;;;;;;;;;5095871;28;20409;-80
2024/04/01 00:05:55;;;;;;;2.05;1.17;;;;;;;;;;5098717;28;20386;-80
2024/04/01 00:08:21;;;;;;;1.45;0.80;;;;;;;;;;5078497;28;20386;-80
2024/04/01 00:10:50;;;;;;;1.40;0.80;;;;;;;;;;5097423;28;20366;-81
2024/04/01 00:13:17;;;;;;;2.67;1.08;;;;;;;;;;5098085;28;20378;-80
2024/04/01 00:15:43;;;;;;;1.67;0.90;;;;;;;;;;5078879;28;20467;-80
2024/04/01 00:18:09;;;;;;;2.70;1.10;;;;;;;;;;5097512;28;20850;-80
2024/04/01 00:20:35;;;;;;;1.75;0.98;;;;;;;;;;5097869;28;20382;-80
2024/04/01 00:23:01;;;;;;;3.30;1.40;;;;;;;;;;5097754;28;20410;-80
2024/04/01 00:25:27;;;;;;;3.30;1.30;;;;;;;;;;5096942;28;20374;-80
2024/04/01 00:27:53;;;;;;;2.80;1.13;;;;;;;;;;5078155;28;20377;-80
2024/04/01 00:30:19;;;;;;;3.20;1.00;;;;;;;;;;5096996;28;20883;-80
2024/04/01 00:32:45;;;;;;;2.27;1.17;;;;;;;;;;5096600;28;20417;-80
2024/04/01 00:35:11;;;;;;;2.97;1.30;;;;;;;;;;5079175;28;20942;-80
2024/04/01 00:37:37;;;;;;;4.88;1.30;;;;;;;;;;5096684;28;20383;-80
2024/04/01 00:40:04;;;;;;;2.20;1.02;;;;;;;;;;5096346;28;20490;-80
2024/04/01 00:42:30;;;;;;;2.38;1.08;;;;;;;;;;5096075;28;20370;-80
2024/04/01 00:44:57;;;;;;;3.00;1.00;;;;;;;;;;5096489;28;20393;-81
2024/04/01 00:47:23;;;;;;;3.95;1.20;;;;;;;;;;5096553;28;20427;-81
2024/04/01 00:49:49;;;;;;;2.58;0.95;;;;;;;;;;5096304;28;20366;-81
2024/04/01 00:52:17;;;;;;;3.47;1.40;;;;;;;;;;5096121;28;20461;-81
2024/04/01 00:54:43;;;;;;;3.13;1.38;;;;;;;;;;5096265;28;20962;-81
2024/04/01 00:57:09;;;;;;;3.42;1.20;;;;;;;;;;5078469;28;20527;-81
2024/04/01 00:59:36;;;;;;;1.63;0.90;;;;;;;;;;5095851;28;20382;-81
2024/04/01 01:02:02;;;;;;;1.60;1.00;;;;;;;;;;5096562;28;20386;-81
2024/04/01 01:04:29;;;;;;;3.47;0.82;;;;;;;;;;5096068;28;20413;-80
2024/04/01 01:06:55;;;;;;;4.03;1.30;;;;;;;;;;5095890;28;20370;-80
2024/04/01 01:09:21;;;;;;;2.60;1.13;;;;;;;;;;5094715;28;20409;-80
2024/04/01 01:11:48;;;;;;;3.20;1.10;;;;;;;;;;5095921;28;20378;-80
2024/04/01 01:14:14;;;;;;;1.70;1.00;;;;;;;;;;5095702;28;20401;-80
2024/04/01 01:16:40;;;;;;;1.77;1.00;;;;;;;;;;5095685;28;20374;-80
2024/04/01 01:19:07;;;;;;;1.52;1.10;;;;;;;;;;5095911;28;20820;-80
2024/04/01 01:21:33;;;;;;;2.90;1.40;;;;;;;;;;5095457;28;20381;-80
2024/04/01 01:24:01;;;;;;;2.43;1.27;;;;;;;;;;5094869;28;20780;-80
2024/04/01 01:26:27;;;;;;;3.40;1.20;;;;;;;;;;5095345;28;20377;-80
2024/04/01 01:28:53;;;;;;;3.42;1.10;;;;;;;;;;5095833;28;20370;-80
2024/04/01 01:31:19;;;;;;;3.38;1.20;;;;;;;;;;5095329;28;20807;-80
2024/04/01 01:33:45;;;;;;;2.42;1.20;;;;;;;;;;5095337;28;20727;-80
2024/04/01 01:36:11;;;;;;;2.65;1.20;;;;;;;;;;5095724;28;20381;-80
2024/04/01 01:38:37;;;;;;;3.00;1.10;;;;;;;;;;5095830;28;20756;-80
2024/04/01 01:41:04;;;;;;;2.35;1.05;;;;;;;;;;5095183;28;20386;-80
2024/04/01 01:43:30;;;;;;;2.67;1.17;;;;;;;;;;5095903;28;20398;-80
2024/04/01 01:45:56;;;;;;;2.67;1.10;;;;;;;;;;5095592;28;20377;-80
2024/04/01 01:48:22;;;;;;;2.50;1.10;;;;;;;;;;5095052;28;20370;-80
2024/04/01 01:50:47;;;;;;;2.35;1.08;;;;;;;;;;5095015;28;20396;-80
2024/04/01 01:53:13;;;;;;;3.10;0.88;;;;;;;;;;5094926;28;20918;-80
2024/04/01 01:55:39;;;;;;;2.58;0.80;;;;;;;;;;5094882;28;20389;-80
2024/04/01 01:58:05;;;;;;;2.70;1.00;;;;;;;;;;5095083;28;20385;-80
2024/04/01 02:00:31;;;;;;;1.30;0.80;;;;;;;;;;5095056;28;20388;-80
2024/04/01 02:02:58;;;;;;;1.42;0.75;;;;;;;;;;5094628;28;20370;-80
2024/04/01 02:05:24;;;;;;;1.80;1.00;;;;;;;;;;5094670;28;20377;-80
2024/04/01 02:07:50;;;;;;;3.40;0.80;;;;;;;;;;5076759;28;20397;-80
2024/04/01 02:10:22;;;;;;;2.35;0.93;;;;;;;;;;5094967;28;20370;-80
2024/04/01 02:12:49;;;;;;;2.60;0.93;;;;;;;;;;5094155;28;20378;-80
2024/04/01 02:15:16;;;;;;;3.45;1.10;;;;;;;;;;5095121;28;20434;-80
2024/04/01 02:17:42;;;;;;;1.60;0.82;;;;;;;;;;5076088;28;20848;-80
2024/04/01 02:20:15;;;;;;;2.33;0.80;;;;;;;;;;5094887;28;20461;-80
2024/04/01 02:22:41;;;;;;;1.65;0.80;;;;;;;;;;5094801;28;20378;-80
2024/04/01 02:25:08;;;;;;;1.70;0.70;;;;;;;;;;5094445;28;20904;-80
2024/04/01 02:27:34;;;;;;;1.85;0.70;;;;;;;;;;5094590;28;20431;-80
2024/04/01 02:30:00;;;;;;;2.40;0.88;;;;;;;;;;5095053;28;20370;-80
2024/04/01 02:32:26;;;;;;;1.75;0.70;;;;;;;;;;5094064;28;20409;-81
2024/04/01 02:34:52;;;;;;;2.30;0.75;;;;;;;;;;5094246;28;20373;-80
2024/04/01 02:37:18;;;;;;;2.30;0.70;;;;;;;;;;5094178;28;20736;-80
2024/04/01 02:39:44;;;;;;;1.25;0.57;;;;;;;;;;5093231;28;20402;-80
2024/04/01 02:42:10;;;;;;;1.50;0.60;;;;;;;;;;5094070;28;20890;-80
2024/04/01 02:44:36;;;;;;;1.70;0.80;;;;;;;;;;5099078;28;20408;-80
2024/04/01 02:47:02;;;;;;;1.43;0.73;;;;;;;;;;5101934;28;20500;-80
2024/04/01 02:49:28;;;;;;;1.38;0.70;;;;;;;;;;5094398;28;20385;-80
2024/04/01 02:51:55;;;;;;;1.63;0.52;;;;;;;;;;5094803;28;20394;-80
2024/04/01 02:54:21;;;;;;;1.55;0.60;;;;;;;;;;5094651;28;20392;-80
2024/04/01 02:56:47;;;;;;;1.70;0.50;;;;;;;;;;5097840;28;20403;-80
2024/04/01 02:59:13;;;;;;;1.23;0.55;;;;;;;;;;5094107;28;20784;-80
2024/04/01 03:01:39;;;;;;;1.80;0.70;;;;;;;;;;5094408;28;20408;-80
2024/04/01 03:04:06;;;;;;;0.90;0.73;;;;;;;;;;5094035;28;20409;-80
2024/04/01 03:06:32;;;;;;;1.40;0.70;;;;;;;;;;5094053;28;20416;-80
2024/04/01 03:08:58;;;;;;;1.10;0.60;;;;;;;;;;5093803;28;20374;-80
2024/04/01 03:11:24;;;;;;;2.40;0.80;;;;;;;;;;5093682;28;20389;-80
2024/04/01 03:13:50;;;;;;;0.60;0.50;;;;;;;;;;5093899;28;20386;-80
2024/04/01 03:16:16;;;;;;;1.30;0.73;;;;;;;;;;5093731;28;20390;-80
2024/04/01 03:18:43;;;;;;;1.73;0.80;;;;;;;;;;5092003;28;20385;-80
2024/04/01 03:21:09;;;;;;;2.88;0.80;;;;;;;;;;5093533;28;20378;-80
2024/04/01 03:23:35;;;;;;;2.28;0.75;;;;;;;;;;5093447;28;20401;-80
2024/04/01 03:26:01;;;;;;;1.23;0.70;;;;;;;;;;5094083;28;20374;-80
2024/04/01 03:28:27;;;;;;;2.22;0.70;;;;;;;;;;5094230;28;20374;-80
2024/04/01 03:30:53;;;;;;;1.48;0.73;;;;;;;;;;5097711;28;20385;-80
2024/04/01 03:33:19;;;;;;;1.40;0.70;;;;;;;;;;5097896;28;20414;-80
2024/04/01 03:35:45;;;;;;;3.35;0.93;;;;;;;;;;5097849;28;20386;-80
2024/04/01 03:38:11;;;;;;;1.95;1.10;;;;;;;;;;5097783;28;20875;-80
2024/04/01 03:40:41;;;;;;;1.83;1.03;;;;;;;;;;5097580;28;20381;-80
2024/04/01 03:43:07;;;;;;;2.08;0.95;;;;;;;;;;5097526;28;20417;-80
2024/04/01 03:45:33;;;;;;;1.63;0.90;;;;;;;;;;5097729;28;20377;-80
2024/04/01 03:47:59;;;;;;;2.90;1.10;;;;;;;;;;5097858;28;20439;-80
2024/04/01 03:50:25;;;;;;;1.90;0.90;;;;;;;;;;5097532;28;20794;-80
2024/04/01 03:52:52;;;;;;;2.60;0.98;;;;;;;;;;5097530;28;20374;-80
2024/04/01 03:55:18;;;;;;;1.45;0.98;;;;;;;;;;5097628;28;20844;-80
2024/04/01 03:57:44;;;;;;;2.33;1.20;;;;;;;;;;5097068;28;20891;-80
2024/04/01 04:00:10;;;;;;;4.03;1.45;;;;;;;;;;5097127;28;20378;-80
2024/04/01 04:02:36;;;;;;;2.65;1.13;;;;;;;;;;5096814;28;20385;-80
2024/04/01 04:05:02;;;;;;;1.88;1.00;;;;;;;;;;5096898;28;20406;-80
2024/04/01 04:07:28;;;;;;;3.15;1.10;;;;;;;;;;5097131;28;20378;-80
2024/04/01 04:09:54;;;;;;;2.35;1.00;;;;;;;;;;5097302;28;20496;-80
2024/04/01 04:12:20;;;;;;;1.73;0.80;;;;;;;;;;5097135;28;20370;-80
2024/04/01 04:14:46;;;;;;;1.95;1.00;;;;;;;;;;5096738;28;20742;-80
2024/04/01 04:17:12;;;;;;;4.50;1.02;;;;;;;;;;5096693;28;20464;-80
2024/04/01 04:19:38;;;;;;;3.38;1.17;;;;;;;;;;5095532;28;20386;-80
2024/04/01 04:22:04;;;;;;;3.22;1.17;;;;;;;;;;5096386;28;20380;-80
2024/04/01 04:24:30;;;;;;;4.38;1.40;;;;;;;;;;5096397;28;20402;-80
2024/04/01 04:26:56;;;;;;;6.25;1.60;;;;;;;;;;5097008;28;20848;-80
2024/04/01 04:29:22;;;;;;;4.97;1.80;;;;;;;;;;5095822;28;20385;-79
2024/04/01 04:31:55;;;;;;;3.55;1.95;;;;;;;;;;5096242;28;20485;-79
2024/04/01 04:34:24;;;;;;;7.50;2.72;;;;;;;;;;5095471;28;20453;-79
2024/04/01 04:36:52;;;;;;;6.93;2.70;;;;;;;;;;5096519;28;20871;-80
2024/04/01 04:39:24;;;;;;;8.98;4.07;;;;;;;;;;5095672;28;21038;-80
2024/04/01 04:41:50;;;;;;;9.88;5.18;;;;;;;;;;5095406;28;20386;-79
2024/04/01 04:44:16;;;;;;;8.73;5.05;;;;;;;;;;5096075;28;20531;-79
2024/04/01 04:46:42;;;;;;;6.95;5.40;;;;;;;;;;5096131;28;20370;-79
2024/04/01 04:49:08;;;;;;;9.00;5.70;;;;;;;;;;5095945;28;20483;-79
2024/04/01 04:51:34;;;;;;;9.75;6.05;;;;;;;;;;5095754;28;20859;-79
2024/04/01 04:54:00;;;;;;;8.57;6.40;;;;;;;;;;5095964;28;20405;-79
2024/04/01 04:56:27;;;;;;;8.50;6.35;;;;;;;;;;5095591;28;20370;-79
2024/04/01 04:58:53;;;;;;;9.73;6.70;;;;;;;;;;5095952;28;20374;-79
2024/04/01 05:01:23;;;;;;;7.45;6.70;;;;;;;;;;5095837;28;20377;-79
2024/04/01 05:03:48;;;;;;;7.32;6.63;;;;;;;;;;5095728;28;20412;-79
2024/04/01 05:06:15;;;;;;;6.40;5.90;;;;;;;;;;5095780;28;20460;-79
2024/04/01 05:08:41;;;;;;;6.82;6.05;;;;;;;;;;5095734;28;20389;-80
2024/04/01 05:11:07;;;;;;;5.60;5.10;;;;;;;;;;5096096;28;20405;-80
2024/04/01 05:13:36;;;;;;;6.95;6.07;;;;;;;;;;5096569;28;20401;-80
2024/04/01 05:16:05;;;;;;;5.30;4.90;;;;;;;;;;5096417;28;20386;-80
2024/04/01 05:18:31;;;;;;;4.57;4.18;;;;;;;;;;5096079;28;20473;-80
2024/04/01 05:20:57;;;;;;;3.78;3.45;;;;;;;;;;5096442;28;20378;-80
2024/04/01 05:23:23;;;;;;;1.50;1.30;;;;;;;;;;5096644;28;20466;-80
2024/04/01 05:25:49;;;;;;;2.15;1.30;;;;;;;;;;5096522;28;20371;-80
2024/04/01 05:28:16;;;;;;;1.52;0.73;;;;;;;;;;5093275;28;20378;-80
2024/04/01 05:30:42;;;;;;;1.10;0.60;;;;;;;;;;5096412;28;20449;-80
2024/04/01 05:33:08;;;;;;;0.50;0.50;;;;;;;;;;5096131;28;20451;-80
2024/04/01 05:35:37;;;;;;;0.80;0.50;;;;;;;;;;5095810;28;20731;-80
2024/04/01 05:38:07;;;;;;;0.75;0.40;;;;;;;;;;5096278;28;20382;-80
2024/04/01 05:40:33;;;;;;;1.50;0.40;;;;;;;;;;5096198;28;20393;-80
2024/04/01 05:42:59;;;;;;;0.80;0.30;;;;;;;;;;5095954;28;20866;-80
2024/04/01 05:45:25;;;;;;;0.30;0.30;;;;;;;;;;5095954;28;20374;-80
2024/04/01 05:47:52;;;;;;;1.10;0.40;;;;;;;;;;5095374;28;20867;-80
2024/04/01 05:50:18;;;;;;;0.80;0.40;;;;;;;;;;5095637;28;20377;-80
2024/04/01 05:52:44;;;;;;;0.45;0.30;;;;;;;;;;5094311;28;20385;-80
2024/04/01 05:55:10;;;;;;;1.20;0.30;;;;;;;;;;5095444;28;20382;-80
2024/04/01 05:57:36;;;;;;;0.20;0.20;;;;;;;;;;5095112;28;20382;-80
2024/04/01 06:00:04;;;;;;;1.13;0.30;;;;;;;;;;5095345;28;20378;-80
2024/04/01 06:02:30;;;;;;;0.70;0.30;;;;;;;;;;5095410;28;20456;-80
2024/04/01 06:04:56;;;;;;;0.80;0.30;;;;;;;;;;5094685;28;20441;-80
2024/04/01 06:07:22;;;;;;;0.20;0.10;;;;;;;;;;5094888;28;20371;-80
2024/04/01 06:09:48;;;;;;;0.43;0.20;;;;;;;;;;5094980;28;20786;-80
2024/04/01 06:12:14;;;;;;;0.35;0.15;;;;;;;;;;5095170;28;20424;-79
2024/04/01 06:14:40;;;;;;;0.30;0.20;;;;;;;;;;5095016;28;20385;-79
2024/04/01 06:17:06;;;;;;;0.20;0.20;;;;;;;;;;5095146;28;20386;-80
2024/04/01 06:19:32;;;;;;;0.30;0.20;;;;;;;;;;5094540;28;20457;-80
2024/04/01 06:21:58;;;;;;;0.33;0.20;;;;;;;;;;5094463;28;20428;-79
2024/04/01 06:24:23;;;;;;;0.90;0.20;;;;;;;;;;5094565;28;20447;-79
2024/04/01 06:26:49;;;;;;;0.68;0.20;;;;;;;;;;5094678;28;20385;-80
2024/04/01 06:29:15;;;;;;;0.32;0.15;;;;;;;;;;5094365;28;20381;-80
2024/04/01 06:31:42;;;;;;;0.65;0.20;;;;;;;;;;5093729;28;20959;-80
2024/04/01 06:34:08;;;;;;;0.50;0.20;;;;;;;;;;5094623;28;20378;-80
2024/04/01 06:36:34;;;;;;;1.00;0.10;;;;;;;;;;5094955;28;20858;-80
2024/04/01 06:39:03;;;;;;;0.47;0.10;;;;;;;;;;5095325;28;20715;-80
2024/04/01 06:41:29;;;;;;;0.50;0.10;;;;;;;;;;5096033;28;20386;-80
2024/04/01 06:43:55;;;;;;;0.20;0.10;;;;;;;;;;5094272;28;20402;-80
2024/04/01 06:46:21;;;;;;;0.10;0.10;;;;;;;;;;5094106;28;20697;-80
2024/04/01 06:48:47;;;;;;;0.10;0.10;;;;;;;;;;5093952;28;20533;-80
2024/04/01 06:51:13;;;;;;;0.63;0.20;;;;;;;;;;5075992;28;20383;-80
2024/04/01 06:53:39;;;;;;;0.30;0.20;;;;;;;;;;5093956;28;20389;-80
2024/04/01 06:56:05;;;;;;;0.20;0.20;;;;;;;;;;5094083;28;20378;-80
2024/04/01 06:58:31;;;;;;;0.90;0.30;;;;;;;;;;5075561;28;20477;-79
2024/04/01 07:00:57;;;;;;;0.35;0.20;;;;;;;;;;5093935;28;20418;-80
2024/04/01 07:03:23;;;;;;;0.70;0.20;;;;;;;;;;5094033;28;20402;-80
2024/04/01 07:05:49;;;;;;;0.50;0.33;;;;;;;;;;5098137;28;20374;-80
2024/04/01 07:08:15;;;;;;;0.50;0.20;;;;;;;;;;5097604;28;20735;-79
2024/04/01 07:10:41;;;;;;;0.38;0.20;;;;;;;;;;5097640;28;20374;-79
2024/04/01 07:13:07;;;;;;;0.30;0.30;;;;;;;;;;5097579;28;20393;-80
2024/04/01 07:15:34;;;;;;;0.25;0.20;;;;;;;;;;5098113;28;20405;-80
2024/04/01 07:18:00;;;;;;;0.20;0.20;;;;;;;;;;5079857;28;20381;-80
2024/04/01 07:20:26;;;;;;;0.43;0.40;;;;;;;;;;5097937;28;20377;-80
2024/04/01 07:22:52;;;;;;;0.60;0.40;;;;;;;;;;5098152;28;20454;-79
2024/04/01 07:25:18;;;;;;;0.63;0.52;;;;;;;;;;5097823;28;21166;-80
2024/04/01 07:27:44;;;;;;;0.52;0.43;;;;;;;;;;5097526;28;20860;-79
2024/04/01 07:30:11;;;;;;;0.47;0.20;;;;;;;;;;5097635;28;20386;-80
2024/04/01 07:32:37;;;;;;;0.50;0.20;;;;;;;;;;5095901;28;20404;-79
2024/04/01 07:35:04;;;;;;;0.20;0.20;;;;;;;;;;5097689;28;20471;-80
2024/04/01 07:37:31;;;;;;;0.32;0.30;;;;;;;;;;5096929;28;20377;-80
2024/04/01 07:39:57;;;;;;;0.20;0.10;;;;;;;;;;5097612;28;20382;-80
2024/04/01 07:42:24;;;;;;;0.50;0.15;;;;;;;;;;5096922;28;20386;-80
2024/04/01 07:44:50;;;;;;;0.20;0.10;;;;;;;;;;5096717;28;20481;-79
2024/04/01 07:47:17;;;;;;;0.70;0.25;;;;;;;;;;5095421;28;20461;-80
2024/04/01 07:49:43;;;;;;;1.58;0.10;;;;;;;;;;5096496;28;20438;-79
2024/04/01 07:52:09;;;;;;;0.30;0.20;;;;;;;;;;5096725;28;20374;-80
2024/04/01 07:54:35;;;;;;;0.20;0.20;;;;;;;;;;5097893;28;20389;-82
2024/04/01 07:57:02;;;;;;;0.30;0.20;;;;;;;;;;5097819;28;20389;-81
2024/04/01 07:59:29;;;;;;;0.20;0.20;;;;;;;;;;5097284;28;20727;-81
2024/04/01 08:01:54;;;;;;;0.80;0.10;;;;;;;;;;5096990;28;20389;-81
2024/04/01 08:04:22;;;;;;;0.20;0.20;;;;;;;;;;5097056;28;20402;-81
2024/04/01 08:06:48;;;;;;;0.30;0.30;;;;;;;;;;5097187;28;20369;-81
2024/04/01 08:09:14;;;;;;;0.40;0.20;;;;;;;;;;5097215;28;20443;-81
2024/04/01 08:11:40;;;;;;;0.10;0.10;;;;;;;;;;5097380;28;20370;-80
2024/04/01 08:14:06;;;;;;;0.10;0.10;;;;;;;;;;5097374;28;20745;-80
2024/04/01 08:16:32;;;;;;;0.88;0.68;;;;;;;;;;5096878;28;20515;-81
2024/04/01 08:18:58;;;;;;;0.27;0.20;;;;;;;;;;5097990;28;20831;-80
2024/04/01 08:21:24;;;;;;;0.20;0.20;;;;;;;;;;5097620;28;20386;-81
2024/04/01 08:23:50;;;;;;;0.50;0.50;;;;;;;;;;5097172;28;20425;-81
2024/04/01 08:26:16;;;;;;;0.35;0.35;;;;;;;;;;5097045;28;20419;-81
2024/04/01 08:28:42;;;;;;;0.20;0.20;;;;;;;;;;5096222;28;20409;-81
2024/04/01 08:31:08;;;;;;;0.22;0.10;;;;;;;;;;5078812;28;20370;-81
2024/04/01 08:33:34;;;;;;;0.20;0.20;;;;;;;;;;5096444;28;20867;-81
2024/04/01 08:36:00;;;;;;;0.10;0.10;;;;;;;;;;5096821;28;20393;-81
2024/04/01 08:38:26;;;;;;;0.20;0.20;;;;;;;;;;5096133;28;20374;-81
2024/04/01 08:40:52;;;;;;;1.35;0.13;;;;;;;;;;5096467;28;20453;-81
2024/04/01 08:43:23;;;;;;;0.20;0.00;;;;;;;;;;5078579;28;20445;-81
2024/04/01 08:45:49;;;;;;;0.10;0.10;;;;;;;;;;5096394;28;20386;-81
2024/04/01 08:48:17;;;;;;;0.20;0.10;;;;;;;;;;5089980;28;20405;-81
2024/04/01 08:50:57;;;;;;;0.00;0.00;;;;;;;;;;5096123;28;20377;-81
2024/04/01 08:53:46;;;;;;;0.17;0.10;;;;;;;;;;5096466;28;20418;-81
2024/04/01 08:56:12;;;;;;;0.17;0.10;;;;;;;;;;5083124;28;20532;-81
2024/04/01 08:58:38;;;;;;;0.38;0.30;;;;;;;;;;5103100;28;20393;-81
2024/04/01 09:01:05;;;;;;;0.40;0.38;;;;;;;;;;5095980;28;20382;-81
2024/04/01 09:03:31;;;;;;;0.20;0.20;;;;;;;;;;5096527;28;20402;-81
2024/04/01 09:05:58;;;;;;;0.45;0.30;;;;;;;;;;5095870;28;20748;-81
2024/04/01 09:08:24;;;;;;;1.33;0.30;;;;;;;;;;5095821;28;20382;-81
2024/04/01 09:10:53;;;;;;;1.17;0.60;;;;;;;;;;5095908;28;20398;-81
2024/04/01 09:13:20;;;;;;;0.40;0.30;;;;;;;;;;5096251;28;20417;-81
2024/04/01 09:15:49;;;;;;;1.20;0.30;;;;;;;;;;5095862;28;20374;-82
2024/04/01 09:18:15;;;;;;;0.20;0.20;;;;;;;;;;5095995;28;20390;-82
2024/04/01 09:20:42;;;;;;;0.30;0.30;;;;;;;;;;5095570;28;20370;-82
2024/04/01 09:23:08;;;;;;;0.10;0.10;;;;;;;;;;5095153;28;20378;-82
2024/04/01 09:25:35;;;;;;;0.20;0.20;;;;;;;;;;5095662;28;20374;-82
2024/04/01 09:28:01;;;;;;;0.32;0.30;;;;;;;;;;5095698;28;20736;-81
2024/04/01 09:30:28;;;;;;;0.20;0.20;;;;;;;;;;5095251;28;20389;-82
2024/04/01 09:32:54;;;;;;;0.28;0.20;;;;;;;;;;5076003;28;20923;-81
2024/04/01 09:35:23;;;;;;;0.32;0.30;;;;;;;;;;5095079;28;20378;-81
2024/04/01 09:37:53;;;;;;;0.20;0.20;;;;;;;;;;5095058;28;20825;-81
2024/04/01 09:40:19;;;;;;;0.70;0.22;;;;;;;;;;5095838;28;20378;-81
2024/04/01 09:42:46;;;;;;;0.20;0.20;;;;;;;;;;5095418;28;20421;-81
2024/04/01 09:45:12;;;;;;;0.10;0.10;;;;;;;;;;5095286;28;20402;-82
2024/04/01 09:47:38;;;;;;;0.20;0.20;;;;;;;;;;5093012;28;20374;-81
2024/04/01 09:50:07;;;;;;;0.30;0.20;;;;;;;;;;5113281;28;20440;-82
2024/04/01 09:52:34;;;;;;;0.20;0.20;;;;;;;;;;5111656;28;20400;-81
2024/04/01 09:55:20;;;;;;;0.40;0.20;;;;;;;;;;5114842;28;20384;-82
2024/04/01 09:57:49;;;;;;;0.30;0.20;;;;;;;;;;5102965;28;20377;-81
2024/04/01 10:00:16;;;;;;;0.30;0.30;;;;;;;;;;5091653;28;20879;-81
2024/04/01 10:02:48;;;;;;;0.22;0.22;;;;;;;;;;5094941;28;20377;-81
2024/04/01 10:05:34;;;;;;;0.70;0.20;;;;;;;;;;5081659;28;20457;-81
2024/04/01 10:08:16;;;;;;;0.27;0.20;;;;;;;;;;5100653;28;20463;-81
2024/04/01 10:11:00;;;;;;;0.60;0.28;;;;;;;;;;5102995;28;20369;-81
2024/04/01 10:13:38;;;;;;;0.17;0.17;;;;;;;;;;5097559;28;20377;-81
2024/04/01 10:16:15;;;;;;;0.10;0.10;;;;;;;;;;5094537;28;20374;-81
2024/04/01 10:18:41;;;;;;;0.20;0.10;;;;;;;;;;5095135;28;20386;-81
2024/04/01 10:21:07;;;;;;;0.10;0.10;;;;;;;;;;5094834;28;20385;-81
2024/04/01 10:24:08;;;;;;;0.60;0.20;;;;;;;;;;5107266;28;20403;-81
2024/04/01 10:26:43;;;;;;;0.10;0.10;;;;;;;;;;4992560;28;20398;-80
2024/04/01 10:29:14;;;;;;;0.10;0.10;;;;;;;;;;5068244;28;20428;-81
2024/04/01 10:31:43;;;;;;;0.10;0.10;;;;;;;;;;5094274;28;20405;-81
2024/04/01 10:34:33;;;;;;;0.70;0.13;;;;;;;;;;5094585;28;20382;-81
2024/04/01 10:37:22;;;;;;;0.40;0.10;;;;;;;;;;5094490;28;20374;-81
2024/04/01 10:40:07;;;;;;;0.10;0.10;;;;;;;;;;5094156;28;20378;-81
2024/04/01 10:42:46;;;;;;;0.10;0.10;;;;;;;;;;5094146;28;20911;-81
2024/04/01 10:45:27;;;;;;;0.20;0.20;;;;;;;;;;5093827;28;20486;-82
2024/04/01 10:48:07;;;;;;;0.20;0.20;;;;;;;;;;5094272;28;20378;-82
2024/04/01 10:50:46;;;;;;;0.50;0.20;;;;;;;;;;5094863;28;20382;-81
2024/04/01 10:53:23;;;;;;;1.05;0.15;;;;;;;;;;5094401;28;20386;-81
2024/04/01 10:55:51;;;;;;;0.10;0.10;;;;;;;;;;5094515;28;20378;-81
2024/04/01 10:58:29;;;;;;;0.32;0.20;;;;;;;;;;5108091;28;20446;-81
2024/04/01 11:01:24;;;;;;;0.10;0.10;;;;;;;;;;5109228;28;20778;-80
2024/04/01 11:04:02;;;;;;;0.10;0.10;;;;;;;;;;5103848;28;20406;-81
2024/04/01 11:06:46;;;;;;;0.17;0.17;;;;;;;;;;5094218;28;20374;-81
2024/04/01 11:09:12;;;;;;;0.70;0.10;;;;;;;;;;5093677;28;20794;-81
2024/04/01 11:11:53;;;;;;;0.15;0.15;;;;;;;;;;5094207;28;20382;-81
2024/04/01 11:14:19;;;;;;;0.10;0.10;;;;;;;;;;5094479;28;20371;-81
2024/04/01 11:16:51;;;;;;;0.43;0.10;;;;;;;;;;5094178;28;20390;-81
2024/04/01 11:19:17;;;;;;;0.55;0.10;;;;;;;;;;5094117;28;20373;-81
2024/04/01 11:21:42;;;;;;;0.20;0.10;;;;;;;;;;5094169;28;20735;-82
2024/04/01 11:24:21;;;;;;;0.22;0.20;;;;;;;;;;5094372;28;20401;-81
2024/04/01 11:26:47;;;;;;;0.20;0.20;;;;;;;;;;5094917;28;20383;-81
2024/04/01 11:29:32;;;;;;;0.10;0.10;;;;;;;;;;5094068;28;20736;-81
2024/04/01 11:31:59;;;;;;;1.10;0.10;;;;;;;;;;5093780;28;20461;-81
2024/04/01 11:34:28;;;;;;;0.10;0.10;;;;;;;;;;5094510;28;20402;-81
2024/04/01 11:37:13;;;;;;;0.20;0.20;;;;;;;;;;5094250;28;20374;-81
2024/04/01 11:39:41;;;;;;;0.23;0.23;;;;;;;;;;5093556;28;20908;-80
2024/04/01 11:42:08;;;;;;;0.17;0.17;;;;;;;;;;5093967;28;20386;-81
2024/04/01 11:44:34;;;;;;;0.17;0.17;;;;;;;;;;5093627;28;20420;-81
2024/04/01 11:47:01;;;;;;;0.10;0.10;;;;;;;;;;5093540;28;20374;-81
2024/04/01 11:49:27;;;;;;;2.35;0.20;;;;;;;;;;5093509;28;20378;-81
2024/04/01 11:51:53;;;;;;;0.80;0.17;;;;;;;;;;5079515;28;20822;-81
2024/04/01 11:54:26;;;;;;;0.50;0.30;;;;;;;;;;5111282;28;20382;-81
2024/04/01 11:56:52;;;;;;;0.60;0.20;;;;;;;;;;5106102;28;20375;-81
2024/04/01 11:59:27;;;;;;;1.52;0.30;;;;;;;;;;5102448;28;20378;-81
2024/04/01 12:01:53;;;;;;;0.32;0.20;;;;;;;;;;5097646;28;20759;-81
2024/04/01 12:04:20;;;;;;;0.40;0.30;;;;;;;;;;5096916;28;20406;-81
2024/04/01 12:06:46;;;;;;;0.68;0.20;;;;;;;;;;5095442;28;20378;-81
2024/04/01 12:09:12;;;;;;;0.10;0.10;;;;;;;;;;5096869;28;20669;-81
2024/04/01 12:11:42;;;;;;;0.20;0.17;;;;;;;;;;5096730;28;20457;-81
2024/04/01 12:14:09;;;;;;;0.10;0.10;;;;;;;;;;5096918;28;20997;-81
2024/04/01 12:16:35;;;;;;;0.20;0.20;;;;;;;;;;5096540;28;20386;-81
2024/04/01 12:19:02;;;;;;;0.30;0.20;;;;;;;;;;5097050;28;20386;-81
2024/04/01 12:21:29;;;;;;;0.45;0.10;;;;;;;;;;5097772;28;20382;-80
2024/04/01 12:23:56;;;;;;;0.20;0.20;;;;;;;;;;5096984;28;20488;-80
2024/04/01 12:26:22;;;;;;;0.10;0.10;;;;;;;;;;5097279;28;20370;-80
2024/04/01 12:28:48;;;;;;;0.10;0.10;;;;;;;;;;5096733;28;20731;-80
2024/04/01 12:31:15;;;;;;;0.10;0.10;;;;;;;;;;5096625;28;20476;-80
2024/04/01 12:33:42;;;;;;;0.50;0.20;;;;;;;;;;5096314;28;20386;-80
2024/04/01 12:36:08;;;;;;;0.10;0.10;;;;;;;;;;5096432;28;20382;-80
2024/04/01 12:38:45;;;;;;;0.98;0.30;;;;;;;;;;5096415;28;20378;-80
2024/04/01 12:41:17;;;;;;;0.10;0.10;;;;;;;;;;5096421;28;20385;-81
2024/04/01 12:43:44;;;;;;;0.10;0.10;;;;;;;;;;5102121;28;20496;-81
2024/04/01 12:46:12;;;;;;;0.25;0.10;;;;;;;;;;5096222;28;20382;-81
2024/04/01 12:48:38;;;;;;;0.40;0.20;;;;;;;;;;5095911;28;20835;-80
2024/04/01 12:51:06;;;;;;;0.30;0.20;;;;;;;;;;5096356;28;20385;-80
2024/04/01 12:53:41;;;;;;;0.30;0.28;;;;;;;;;;5096168;28;20374;-80
2024/04/01 12:56:26;;;;;;;0.30;0.30;;;;;;;;;;5098503;28;20471;-80
2024/04/01 12:58:59;;;;;;;0.30;0.20;;;;;;;;;;5104645;28;20462;-80
2024/04/01 13:01:32;;;;;;;0.60;0.25;;;;;;;;;;5095509;28;20613;-80
2024/04/01 13:04:06;;;;;;;0.22;0.20;;;;;;;;;;5095087;28;20398;-80
2024/04/01 13:06:41;;;;;;;0.40;0.30;;;;;;;;;;5095367;28;20379;-80
2024/04/01 13:09:16;;;;;;;0.50;0.15;;;;;;;;;;5106988;28;20734;-80
2024/04/01 13:12:01;;;;;;;0.20;0.20;;;;;;;;;;5109048;28;20448;-81
2024/04/01 13:14:39;;;;;;;0.80;0.20;;;;;;;;;;5088984;28;20857;-81
2024/04/01 13:17:15;;;;;;;0.30;0.30;;;;;;;;;;5095625;28;20389;-81
2024/04/01 13:19:48;;;;;;;0.13;0.13;;;;;;;;;;5095363;28;20386;-81
2024/04/01 13:22:24;;;;;;;0.40;0.30;;;;;;;;;;5095106;28;20374;-81
2024/04/01 13:24:52;;;;;;;0.30;0.30;;;;;;;;;;5094815;28;20838;-81
2024/04/01 13:27:30;;;;;;;0.40;0.20;;;;;;;;;;5094375;28;20851;-81
2024/04/01 13:30:11;;;;;;;1.10;0.20;;;;;;;;;;5095741;28;20382;-81
2024/04/01 13:32:37;;;;;;;0.87;0.20;;;;;;;;;;5105947;28;20867;-81
2024/04/01 13:35:22;;;;;;;0.20;0.20;;;;;;;;;;5094863;28;20392;-80
2024/04/01 13:37:51;;;;;;;0.13;0.13;;;;;;;;;;5076576;28;20378;-80
2024/04/01 13:40:28;;;;;;;0.30;0.20;;;;;;;;;;5094560;28;20390;-80
2024/04/01 13:43:03;;;;;;;0.20;0.20;;;;;;;;;;5094595;28;20389;-80
2024/04/01 13:45:48;;;;;;;0.30;0.20;;;;;;;;;;5094054;28;20413;-80
2024/04/01 13:48:29;;;;;;;0.10;0.10;;;;;;;;;;5094198;28;20374;-80
2024/04/01 13:51:06;;;;;;;0.17;0.10;;;;;;;;;;5094364;28;20807;-81
2024/04/01 13:53:42;;;;;;;0.40;0.17;;;;;;;;;;5094373;28;20386;-81
2024/04/01 13:56:27;;;;;;;0.20;0.20;;;;;;;;;;5083517;28;20384;-81
2024/04/01 13:59:11;;;;;;;0.20;0.10;;;;;;;;;;5102439;28;20393;-80
2024/04/01 14:01:55;;;;;;;0.82;0.30;;;;;;;;;;5094210;28;20386;-81
2024/04/01 14:04:36;;;;;;;0.45;0.20;;;;;;;;;;5094390;28;20438;-81
2024/04/01 14:07:02;;;;;;;0.50;0.20;;;;;;;;;;5093755;28;20374;-80
2024/04/01 14:09:36;;;;;;;0.40;0.20;;;;;;;;;;5094041;28;20711;-80
2024/04/01 14:12:13;;;;;;;0.10;0.10;;;;;;;;;;5093831;28;20378;-81
2024/04/01 14:14:57;;;;;;;0.20;0.15;;;;;;;;;;5092760;28;20461;-81
2024/04/01 14:17:44;;;;;;;0.15;0.10;;;;;;;;;;5094287;28;20378;-81
2024/04/01 14:20:23;;;;;;;0.50;0.30;;;;;;;;;;5112739;28;20376;-80
2024/04/01 14:22:49;;;;;;;0.30;0.20;;;;;;;;;;5103006;28;20451;-81
2024/04/01 14:25:15;;;;;;;1.00;0.30;;;;;;;;;;5108641;28;20413;-80
2024/04/01 14:27:41;;;;;;;0.30;0.30;;;;;;;;;;5094088;28;20366;-80
2024/04/01 14:30:08;;;;;;;0.20;0.20;;;;;;;;;;5093590;28;20426;-80
2024/04/01 14:32:35;;;;;;;0.30;0.20;;;;;;;;;;5093732;28;20474;-81
2024/04/01 14:35:01;;;;;;;0.50;0.30;;;;;;;;;;5094453;28;20370;-81
2024/04/01 14:37:27;;;;;;;0.20;0.20;;;;;;;;;;5107530;28;20456;-81
2024/04/01 14:39:54;;;;;;;0.70;0.60;;;;;;;;;;5094466;28;21140;-81
2024/04/01 14:42:20;;;;;;;0.52;0.43;;;;;;;;;;5094077;28;20394;-81
2024/04/01 14:44:46;;;;;;;0.50;0.22;;;;;;;;;;5093838;28;20416;-80
2024/04/01 14:47:13;;;;;;;0.65;0.30;;;;;;;;;;5094052;28;20378;-80
2024/04/01 14:49:39;;;;;;;0.20;0.17;;;;;;;;;;5094192;28;20374;-81
2024/04/01 14:52:05;;;;;;;0.20;0.20;;;;;;;;;;5094097;28;20465;-82